createdAt,value
2017-08-04T00:00:02.967Z,7.33
2017-08-04T00:02:30.499Z,7.10
2017-08-04T00:04:58.012Z,6.83
2017-08-04T00:07:25.524Z,6.67
2017-08-04T00:09:53.055Z,6.20
2017-08-04T00:12:20.584Z,6.73
2017-08-04T00:14:48.487Z,6.87
2017-08-04T00:17:16.015Z,6.60
2017-08-04T00:19:43.938Z,6.60
2017-08-04T00:22:11.455Z,7.00
2017-08-04T00:24:39.362Z,6.60
2017-08-04T00:27:06.906Z,6.50
2017-08-04T00:29:34.412Z,7.00
2017-08-04T00:32:01.923Z,6.50
2017-08-04T00:34:29.452Z,7.10
2017-08-04T00:36:56.962Z,7.13
2017-08-04T00:39:24.458Z,6.47
2017-08-04T00:41:51.994Z,7.70
2017-08-04T00:44:19.527Z,7.43
2017-08-04T00:46:47.040Z,7.93
2017-08-04T00:49:14.553Z,8.40
2017-08-04T00:51:42.082Z,8.00
2017-08-04T00:54:09.986Z,8.10
2017-08-04T00:56:37.494Z,8.63
2017-08-04T00:59:05.019Z,8.63
2017-08-04T01:01:32.525Z,8.63
2017-08-04T01:04:00.430Z,8.53
2017-08-04T01:06:27.971Z,8.73
2017-08-04T01:08:55.481Z,8.60
2017-08-04T01:11:23.038Z,8.40
2017-08-04T01:13:50.570Z,9.07
2017-08-04T01:16:18.075Z,11.40
2017-08-04T01:18:45.588Z,12.10
2017-08-04T01:21:13.123Z,10.83
2017-08-04T01:23:41.028Z,10.50
2017-08-04T01:26:08.539Z,10.53
2017-08-04T01:28:36.469Z,11.73
2017-08-04T01:31:03.978Z,12.57
2017-08-04T01:33:31.882Z,12.30
2017-08-04T01:35:59.415Z,12.30
2017-08-04T01:38:26.931Z,12.53
2017-08-04T01:40:54.439Z,11.00
2017-08-04T01:43:21.976Z,11.23
2017-08-04T01:45:49.884Z,12.50
2017-08-04T01:48:17.389Z,12.73
2017-08-04T01:50:44.927Z,12.10
2017-08-04T01:53:12.435Z,11.30
2017-08-04T01:55:40.340Z,12.33
2017-08-04T01:58:07.871Z,12.50
2017-08-04T02:00:35.378Z,11.90
2017-08-04T02:03:02.892Z,12.63
2017-08-04T02:05:30.834Z,12.97
2017-08-04T02:07:58.347Z,15.37
2017-08-04T02:10:25.870Z,19.00
2017-08-04T02:12:53.802Z,19.53
2017-08-04T02:15:21.315Z,20.27
2017-08-04T02:17:48.831Z,19.40
2017-08-04T02:20:16.363Z,15.60
2017-08-04T02:22:43.884Z,18.80
2017-08-04T02:25:11.827Z,17.50
2017-08-04T02:27:39.348Z,18.20
2017-08-04T02:30:06.858Z,16.57
2017-08-04T02:32:34.406Z,15.20
2017-08-04T02:35:01.910Z,14.17
2017-08-04T02:37:29.422Z,11.93
2017-08-04T02:39:56.958Z,9.60
2017-08-04T02:42:24.475Z,10.67
2017-08-04T02:44:51.985Z,10.23
2017-08-04T02:47:19.515Z,9.50
2017-08-04T02:49:47.027Z,8.97
2017-08-04T02:52:14.540Z,7.50
2017-08-04T02:54:42.037Z,9.90
2017-08-04T02:57:09.575Z,9.27
2017-08-04T02:59:37.108Z,9.20
2017-08-04T03:02:04.663Z,10.20
2017-08-04T03:04:32.162Z,8.47
2017-08-04T03:06:59.682Z,9.10
2017-08-04T03:09:27.210Z,8.73
2017-08-04T03:11:54.715Z,9.37
2017-08-04T03:14:22.231Z,8.50
2017-08-04T03:16:49.759Z,8.70
2017-08-04T03:19:17.268Z,9.83
2017-08-04T03:21:44.775Z,9.10
2017-08-04T03:24:12.302Z,8.57
2017-08-04T03:26:40.202Z,9.23
2017-08-04T03:29:07.707Z,9.13
2017-08-04T03:31:35.246Z,9.60
2017-08-04T03:34:02.758Z,8.93
2017-08-04T03:36:30.673Z,9.93
2017-08-04T03:38:58.215Z,10.10
2017-08-04T03:41:25.723Z,9.87
2017-08-04T03:43:53.242Z,9.33
2017-08-04T03:46:20.791Z,10.50
2017-08-04T03:48:48.312Z,11.63
2017-08-04T03:51:16.224Z,14.73
2017-08-04T03:53:43.795Z,16.90
2017-08-04T03:56:11.320Z,19.13
2017-08-04T03:58:38.844Z,19.20
2017-08-04T04:01:06.383Z,17.53
2017-08-04T04:03:33.907Z,18.50
2017-08-04T04:06:01.438Z,13.73
2017-08-04T04:08:29.375Z,13.57
2017-08-04T04:10:56.890Z,12.70
2017-08-04T04:13:24.425Z,11.30
2017-08-04T04:15:51.958Z,10.47
2017-08-04T04:18:19.464Z,11.60
2017-08-04T04:20:47.387Z,10.23
2017-08-04T04:23:14.935Z,11.37
2017-08-04T04:25:42.451Z,11.00
2017-08-04T04:28:10.351Z,10.70
2017-08-04T04:30:37.887Z,10.37
2017-08-04T04:33:05.414Z,10.13
2017-08-04T04:35:32.926Z,10.17
2017-08-04T04:38:00.447Z,10.83
2017-08-04T04:40:27.990Z,10.43
2017-08-04T04:42:55.495Z,10.10
2017-08-04T04:45:22.998Z,9.33
2017-08-04T04:47:50.535Z,10.10
2017-08-04T04:50:18.044Z,9.93
2017-08-04T04:52:45.555Z,9.43
2017-08-04T04:55:13.087Z,9.27
2017-08-04T04:57:40.987Z,10.00
2017-08-04T05:00:08.496Z,9.60
2017-08-04T05:02:36.027Z,9.43
2017-08-04T05:05:03.539Z,9.97
2017-08-04T05:07:31.443Z,9.90
2017-08-04T05:09:58.966Z,9.87
2017-08-04T05:12:26.863Z,9.47
2017-08-04T05:14:54.372Z,9.03
2017-08-04T05:17:21.908Z,8.93
2017-08-04T05:19:49.418Z,9.40
2017-08-04T05:22:17.315Z,9.20
2017-08-04T05:24:44.842Z,9.23
2017-08-04T05:27:12.357Z,8.00
2017-08-04T05:29:39.859Z,8.20
2017-08-04T05:32:07.389Z,8.10
2017-08-04T05:34:34.891Z,8.17
2017-08-04T05:37:02.398Z,8.17
2017-08-04T05:39:29.926Z,8.43
2017-08-04T05:41:57.433Z,8.10
2017-08-04T05:44:24.959Z,6.90
2017-08-04T05:46:52.489Z,6.87
2017-08-04T05:49:19.998Z,6.60
2017-08-04T05:51:47.502Z,7.40
2017-08-04T05:54:15.427Z,6.17
2017-08-04T05:56:42.931Z,6.30
2017-08-04T05:59:10.835Z,5.67
2017-08-04T06:01:38.367Z,6.20
2017-08-04T06:04:05.883Z,6.43
2017-08-04T06:06:33.386Z,6.70
2017-08-04T06:09:00.910Z,6.60
2017-08-04T06:11:28.410Z,7.10
2017-08-04T06:13:55.911Z,6.97
2017-08-04T06:16:23.454Z,6.90
2017-08-04T06:18:50.959Z,6.20
2017-08-04T06:21:18.473Z,6.17
2017-08-04T06:23:46.002Z,5.63
2017-08-04T06:26:13.914Z,6.60
2017-08-04T06:28:41.418Z,5.77
2017-08-04T06:31:09.338Z,5.70
2017-08-04T06:33:36.838Z,5.60
2017-08-04T06:36:04.331Z,5.87
2017-08-04T06:38:31.861Z,4.63
2017-08-04T06:40:59.373Z,6.00
2017-08-04T06:43:26.878Z,5.30
2017-08-04T06:45:54.411Z,6.40
2017-08-04T06:48:33.754Z,6.40
2017-08-04T06:51:13.083Z,5.30
2017-08-04T06:53:52.523Z,5.40
2017-08-04T06:56:20.083Z,5.43
2017-08-04T06:58:47.591Z,5.67
2017-08-04T07:01:15.499Z,5.00
2017-08-04T07:03:43.071Z,5.50
2017-08-04T07:06:10.572Z,5.20
2017-08-04T07:08:38.094Z,4.30
2017-08-04T07:11:05.589Z,5.00
2017-08-04T07:13:33.103Z,5.87
2017-08-04T07:16:00.626Z,5.30
2017-08-04T07:18:28.560Z,6.17
2017-08-04T07:20:56.066Z,6.10
2017-08-04T07:23:23.595Z,5.20
2017-08-04T07:25:51.103Z,4.50
2017-08-04T07:28:19.438Z,4.93
2017-08-04T07:30:46.986Z,4.60
2017-08-04T07:33:14.483Z,3.87
2017-08-04T07:35:42.172Z,4.20
2017-08-04T07:38:09.709Z,4.47
2017-08-04T07:40:37.218Z,4.70
2017-08-04T07:43:04.718Z,4.30
2017-08-04T07:45:32.246Z,4.20
2017-08-04T07:47:59.741Z,4.40
2017-08-04T07:50:27.242Z,4.87
2017-08-04T07:52:54.770Z,4.10
2017-08-04T07:55:22.296Z,3.50
2017-08-04T07:57:49.802Z,3.57
2017-08-04T08:00:17.310Z,3.87
2017-08-04T08:02:44.840Z,3.80
2017-08-04T08:05:12.351Z,3.70
2017-08-04T08:07:40.246Z,3.40
2017-08-04T08:10:07.771Z,3.63
2017-08-04T08:12:35.276Z,4.03
2017-08-04T08:15:02.783Z,3.63
2017-08-04T08:17:30.315Z,3.07
2017-08-04T08:19:57.817Z,3.37
2017-08-04T08:22:25.321Z,3.57
2017-08-04T08:24:52.846Z,3.37
2017-08-04T08:27:20.744Z,3.53
2017-08-04T08:29:48.246Z,3.30
2017-08-04T08:32:15.771Z,3.50
2017-08-04T08:34:43.270Z,4.03
2017-08-04T08:37:10.775Z,3.50
2017-08-04T08:39:38.300Z,3.80
2017-08-04T08:42:05.819Z,3.50
2017-08-04T08:44:33.319Z,3.80
2017-08-04T08:47:00.814Z,3.87
2017-08-04T08:49:28.330Z,3.80
2017-08-04T08:51:55.829Z,3.57
2017-08-04T08:54:23.345Z,4.10
2017-08-04T08:56:50.873Z,3.60
2017-08-04T08:59:18.375Z,3.93
2017-08-04T09:01:45.879Z,3.43
2017-08-04T09:04:13.407Z,4.40
2017-08-04T09:06:40.914Z,3.50
2017-08-04T09:09:08.414Z,3.53
2017-08-04T09:11:35.938Z,3.57
2017-08-04T09:14:03.447Z,3.40
2017-08-04T09:16:31.342Z,3.43
2017-08-04T09:18:58.862Z,3.83
2017-08-04T09:21:26.362Z,3.73
2017-08-04T09:23:53.866Z,3.83
2017-08-04T09:26:21.381Z,3.93
2017-08-04T09:28:48.938Z,3.70
2017-08-04T09:31:16.456Z,3.93
2017-08-04T09:33:44.031Z,3.90
2017-08-04T09:36:11.554Z,4.10
2017-08-04T09:38:39.063Z,4.23
2017-08-04T09:41:06.987Z,3.53
2017-08-04T09:43:34.514Z,4.07
2017-08-04T09:46:02.027Z,4.33
2017-08-04T09:48:29.535Z,3.83
2017-08-04T09:50:57.063Z,3.50
2017-08-04T09:53:24.966Z,3.90
2017-08-04T09:55:52.470Z,4.07
2017-08-04T09:58:19.999Z,3.63
2017-08-04T10:00:47.499Z,3.87
2017-08-04T10:03:15.015Z,3.53
2017-08-04T10:05:42.547Z,4.20
2017-08-04T10:08:10.450Z,3.50
2017-08-04T10:10:37.963Z,3.90
2017-08-04T10:13:05.890Z,4.40
2017-08-04T10:15:33.400Z,3.63
2017-08-04T10:18:01.295Z,3.80
2017-08-04T10:20:28.842Z,4.30
2017-08-04T10:22:56.347Z,4.00
2017-08-04T10:25:23.850Z,3.67
2017-08-04T10:27:51.779Z,3.97
2017-08-04T10:30:19.443Z,4.90
2017-08-04T10:32:46.966Z,4.73
2017-08-04T10:35:14.566Z,4.73
2017-08-04T10:37:42.067Z,3.20
2017-08-04T10:40:09.967Z,3.93
2017-08-04T10:42:37.495Z,3.37
2017-08-04T10:45:05.400Z,3.67
2017-08-04T10:47:32.908Z,3.50
2017-08-04T10:50:00.431Z,3.83
2017-08-04T10:52:27.935Z,3.90
2017-08-04T10:54:55.448Z,3.57
2017-08-04T10:57:22.980Z,3.70
2017-08-04T10:59:50.482Z,3.90
2017-08-04T11:02:17.982Z,3.97
2017-08-04T11:04:45.915Z,4.77
2017-08-04T11:07:13.415Z,3.80
2017-08-04T11:09:40.932Z,3.60
2017-08-04T11:12:08.458Z,3.97
2017-08-04T11:14:35.966Z,3.90
2017-08-04T11:17:03.475Z,3.70
2017-08-04T11:19:31.011Z,4.10
2017-08-04T11:21:58.923Z,3.67
2017-08-04T11:24:26.422Z,3.50
2017-08-04T11:26:53.973Z,3.10
2017-08-04T11:29:21.481Z,3.43
2017-08-04T11:31:49.001Z,3.30
2017-08-04T11:34:16.537Z,3.60
2017-08-04T11:36:44.042Z,4.00
2017-08-04T11:39:11.550Z,3.60
2017-08-04T11:41:39.082Z,4.40
2017-08-04T11:44:06.588Z,3.90
2017-08-04T11:46:34.090Z,4.33
2017-08-04T11:49:02.011Z,4.90
2017-08-04T11:51:29.527Z,4.40
2017-08-04T11:53:57.030Z,3.77
2017-08-04T11:56:24.568Z,4.10
2017-08-04T11:58:52.095Z,5.10
2017-08-04T12:01:20.002Z,4.70
2017-08-04T12:03:47.498Z,4.47
2017-08-04T12:06:15.026Z,4.73
2017-08-04T12:08:42.525Z,4.60
2017-08-04T12:11:10.035Z,4.50
2017-08-04T12:13:37.562Z,4.40
2017-08-04T12:16:05.457Z,4.70
2017-08-04T12:18:32.964Z,4.37
2017-08-04T12:21:00.500Z,6.60
2017-08-04T12:23:28.014Z,5.70
2017-08-04T12:25:55.522Z,6.87
2017-08-04T12:28:23.051Z,5.33
2017-08-04T12:30:50.582Z,5.07
2017-08-04T12:33:18.518Z,4.80
2017-08-04T12:35:46.075Z,5.13
2017-08-04T12:38:13.583Z,5.10
2017-08-04T12:40:41.482Z,5.17
2017-08-04T12:43:09.019Z,5.40
2017-08-04T12:45:36.918Z,5.00
2017-08-04T12:48:04.480Z,4.40
2017-08-04T12:50:31.992Z,5.07
2017-08-04T12:52:59.493Z,5.20
2017-08-04T12:55:27.195Z,4.97
2017-08-04T12:57:56.710Z,5.17
2017-08-04T13:00:24.483Z,4.90
2017-08-04T13:02:52.177Z,4.80
2017-08-04T13:05:20.096Z,5.10
2017-08-04T13:07:47.603Z,4.50
2017-08-04T13:10:15.543Z,5.00
2017-08-04T13:12:43.056Z,4.50
2017-08-04T13:15:10.567Z,6.03
2017-08-04T13:17:41.149Z,5.23
2017-08-04T13:20:10.051Z,4.77
2017-08-04T13:22:37.555Z,5.20
2017-08-04T13:25:05.093Z,5.00
2017-08-04T13:27:32.594Z,5.27
2017-08-04T13:30:00.094Z,5.70
2017-08-04T13:32:27.617Z,5.20
2017-08-04T13:34:55.617Z,4.73
2017-08-04T13:37:23.127Z,4.60
2017-08-04T13:39:50.666Z,4.63
2017-08-04T13:42:18.202Z,4.87
2017-08-04T13:44:45.710Z,5.27
2017-08-04T13:47:13.226Z,5.30
2017-08-04T13:49:40.727Z,5.87
2017-08-04T13:52:08.243Z,4.90
2017-08-04T13:54:35.775Z,6.00
2017-08-04T13:57:03.283Z,5.60
2017-08-04T13:59:30.786Z,5.63
2017-08-04T14:01:58.710Z,5.70
2017-08-04T14:04:26.218Z,5.73
2017-08-04T14:06:54.118Z,5.80
2017-08-04T14:09:21.638Z,5.67
2017-08-04T14:11:49.138Z,5.57
2017-08-04T14:14:16.638Z,6.00
2017-08-04T14:16:44.190Z,4.93
2017-08-04T14:19:11.691Z,5.73
2017-08-04T14:21:39.246Z,5.40
2017-08-04T14:24:07.166Z,5.60
2017-08-04T14:26:34.670Z,5.90
2017-08-04T14:29:02.574Z,5.80
2017-08-04T14:31:30.107Z,5.87
2017-08-04T14:33:57.614Z,5.77
2017-08-04T14:36:25.124Z,5.80
2017-08-04T14:38:53.046Z,6.13
2017-08-04T14:41:20.550Z,5.30
2017-08-04T14:43:48.451Z,5.70
2017-08-04T14:46:15.983Z,5.10
2017-08-04T14:48:43.882Z,5.13
2017-08-04T14:51:11.382Z,5.47
2017-08-04T14:53:38.906Z,5.53
2017-08-04T14:56:06.439Z,5.43
2017-08-04T14:58:33.943Z,5.77
2017-08-04T15:01:01.632Z,5.60
2017-08-04T15:03:29.333Z,5.97
2017-08-04T15:05:56.839Z,6.93
2017-08-04T15:08:24.362Z,5.90
2017-08-04T15:10:51.876Z,4.63
2017-08-04T15:13:19.378Z,5.53
2017-08-04T15:15:46.903Z,5.20
2017-08-04T15:18:14.407Z,8.57
2017-08-04T15:20:41.917Z,6.70
2017-08-04T15:23:09.451Z,6.07
2017-08-04T15:25:36.959Z,6.80
2017-08-04T15:28:05.622Z,5.57
2017-08-04T15:30:33.142Z,4.33
2017-08-04T15:33:00.647Z,4.67
2017-08-04T15:35:28.151Z,5.17
2017-08-04T15:37:55.679Z,4.43
2017-08-04T15:40:23.587Z,3.80
2017-08-04T15:42:51.083Z,3.90
2017-08-04T15:45:18.602Z,4.20
2017-08-04T15:47:46.111Z,3.97
2017-08-04T15:50:13.629Z,4.23
2017-08-04T15:52:41.161Z,3.90
2017-08-04T15:55:09.064Z,4.07
2017-08-04T15:57:36.567Z,4.23
2017-08-04T16:00:04.145Z,3.83
2017-08-04T16:02:31.659Z,4.70
2017-08-04T16:04:59.163Z,4.40
2017-08-04T16:07:27.095Z,4.80
2017-08-04T16:09:54.602Z,4.30
2017-08-04T16:12:22.119Z,4.57
2017-08-04T16:14:49.776Z,3.97
2017-08-04T16:17:17.360Z,3.67
2017-08-04T16:19:44.883Z,4.70
2017-08-04T16:22:12.403Z,4.60
2017-08-04T16:24:39.919Z,4.50
2017-08-04T16:27:07.443Z,4.90
2017-08-04T16:29:35.026Z,4.40
2017-08-04T16:32:02.547Z,3.67
2017-08-04T16:34:30.057Z,4.53
2017-08-04T16:36:57.593Z,4.30
2017-08-04T16:39:25.099Z,5.90
2017-08-04T16:41:52.608Z,4.40
2017-08-04T16:44:20.141Z,5.00
2017-08-04T16:46:48.040Z,5.50
2017-08-04T16:49:15.547Z,5.50
2017-08-04T16:51:43.074Z,5.70
2017-08-04T16:54:10.582Z,5.37
2017-08-04T16:56:38.483Z,6.00
2017-08-04T16:59:06.006Z,4.83
2017-08-04T17:01:33.910Z,5.80
2017-08-04T17:04:01.422Z,6.10
2017-08-04T17:06:29.010Z,5.60
2017-08-04T17:08:56.930Z,4.67
2017-08-04T17:11:24.446Z,5.00
2017-08-04T17:13:52.376Z,5.60
2017-08-04T17:16:19.879Z,5.27
2017-08-04T17:18:47.379Z,4.90
2017-08-04T17:21:14.906Z,4.93
2017-08-04T17:23:42.407Z,5.20
2017-08-04T17:26:09.915Z,6.17
2017-08-04T17:28:37.442Z,5.23
2017-08-04T17:31:04.959Z,5.37
2017-08-04T17:33:32.467Z,5.43
2017-08-04T17:35:59.995Z,4.53
2017-08-04T17:38:27.534Z,5.50
2017-08-04T17:40:55.043Z,4.90
2017-08-04T17:43:22.551Z,4.80
2017-08-04T17:45:50.084Z,5.07
2017-08-04T17:48:17.978Z,4.90
2017-08-04T17:50:45.487Z,5.23
2017-08-04T17:53:13.017Z,5.30
2017-08-04T17:55:40.523Z,5.43
2017-08-04T17:58:22.934Z,5.07
2017-08-04T18:00:50.436Z,5.10
2017-08-04T18:03:17.947Z,5.63
2017-08-04T18:05:45.485Z,5.07
2017-08-04T18:08:13.008Z,5.60
2017-08-04T18:10:40.538Z,5.00
2017-08-04T18:13:08.471Z,5.00
2017-08-04T18:15:35.979Z,4.87
2017-08-04T18:18:03.509Z,5.40
2017-08-04T18:20:31.043Z,5.33
2017-08-04T18:22:58.550Z,4.67
2017-08-04T18:25:26.457Z,5.70
2017-08-04T18:27:53.994Z,5.60
2017-08-04T18:30:21.498Z,5.37
2017-08-04T18:32:49.006Z,5.60
2017-08-04T18:35:16.936Z,5.97
2017-08-04T18:37:44.451Z,6.40
2017-08-04T18:40:11.990Z,6.50
2017-08-04T18:42:39.933Z,6.43
2017-08-04T18:45:07.498Z,5.93
2017-08-04T18:47:35.011Z,6.70
2017-08-04T18:50:02.547Z,5.30
2017-08-04T18:52:30.448Z,5.80
2017-08-04T18:54:57.963Z,5.70
2017-08-04T18:57:25.486Z,5.33
2017-08-04T18:59:52.993Z,6.80
2017-08-04T19:02:20.914Z,6.33
2017-08-04T19:04:48.446Z,5.27
2017-08-04T19:07:15.975Z,6.37
2017-08-04T19:09:43.483Z,7.70
2017-08-04T19:12:11.015Z,5.70
2017-08-04T19:14:38.921Z,6.53
2017-08-04T19:17:06.439Z,6.20
2017-08-04T19:19:34.367Z,5.60
2017-08-04T19:22:01.894Z,6.00
2017-08-04T19:24:29.403Z,7.50
2017-08-04T19:26:56.935Z,6.90
2017-08-04T19:29:24.447Z,5.77
2017-08-04T19:31:52.347Z,6.90
2017-08-04T19:34:19.882Z,7.30
2017-08-04T19:36:47.786Z,7.43
2017-08-04T19:39:15.301Z,6.63
2017-08-04T19:41:43.275Z,6.00
2017-08-04T19:44:11.183Z,6.57
2017-08-04T19:46:38.686Z,5.90
2017-08-04T19:49:06.218Z,6.03
2017-08-04T19:51:33.728Z,6.30
2017-08-04T19:54:01.634Z,7.20
2017-08-04T19:56:29.166Z,10.13
2017-08-04T19:58:56.673Z,6.57
2017-08-04T20:01:24.179Z,7.10
2017-08-04T20:03:52.112Z,6.30
2017-08-04T20:06:19.619Z,6.50
2017-08-04T20:08:47.142Z,6.23
2017-08-04T20:11:14.671Z,6.60
2017-08-04T20:13:42.173Z,6.07
2017-08-04T20:16:09.674Z,6.17
2017-08-04T20:18:37.207Z,6.80
2017-08-04T20:21:05.115Z,6.30
2017-08-04T20:23:32.616Z,6.37
2017-08-04T20:26:00.150Z,6.20
2017-08-04T20:28:27.650Z,5.83
2017-08-04T20:30:55.551Z,6.13
2017-08-04T20:33:23.086Z,5.83
2017-08-04T20:35:51.006Z,5.00
2017-08-04T20:38:18.510Z,6.37
2017-08-04T20:40:46.441Z,5.90
2017-08-04T20:43:13.943Z,6.40
2017-08-04T20:45:41.866Z,6.33
2017-08-04T20:48:09.374Z,6.83
2017-08-04T20:50:37.291Z,6.33
2017-08-04T20:53:04.821Z,6.10
2017-08-04T20:55:32.342Z,6.40
2017-08-04T20:57:59.852Z,7.00
2017-08-04T21:00:27.354Z,6.80
2017-08-04T21:02:54.883Z,6.50
2017-08-04T21:05:22.401Z,6.67
2017-08-04T21:07:50.303Z,6.30
2017-08-04T21:10:17.836Z,5.83
2017-08-04T21:12:45.747Z,6.37
2017-08-04T21:15:13.250Z,5.77
2017-08-04T21:17:40.790Z,6.33
2017-08-04T21:20:08.294Z,5.80
2017-08-04T21:22:35.800Z,5.83
2017-08-04T21:25:03.331Z,7.50
2017-08-04T21:27:30.843Z,5.80
2017-08-04T21:29:58.359Z,5.67
2017-08-04T21:32:25.886Z,7.07
2017-08-04T21:34:53.395Z,6.97
2017-08-04T21:37:20.926Z,6.20
2017-08-04T21:39:48.458Z,7.50
2017-08-04T21:42:16.375Z,6.93
2017-08-04T21:44:43.929Z,7.60
2017-08-04T21:47:11.489Z,7.30
2017-08-04T21:49:38.991Z,6.80
2017-08-04T21:52:06.508Z,6.93
2017-08-04T21:54:34.043Z,7.53
2017-08-04T21:57:01.956Z,6.73
2017-08-04T21:59:29.483Z,6.77
2017-08-04T22:01:57.031Z,6.43
2017-08-04T22:04:24.935Z,7.00
2017-08-04T22:06:52.439Z,7.50
2017-08-04T22:09:19.971Z,7.60
2017-08-04T22:11:47.475Z,7.77
2017-08-04T22:14:15.378Z,7.40
2017-08-04T22:16:42.910Z,6.90
2017-08-04T22:19:10.811Z,8.47
2017-08-04T22:21:38.696Z,7.37
2017-08-04T22:24:06.694Z,6.80
2017-08-04T22:26:34.197Z,6.90
2017-08-04T22:29:02.094Z,7.30
2017-08-04T22:31:30.539Z,7.83
2017-08-04T22:33:58.061Z,7.77
2017-08-04T22:36:25.570Z,7.90
2017-08-04T22:38:53.104Z,6.60
2017-08-04T22:41:21.016Z,6.97
2017-08-04T22:43:48.524Z,6.77
2017-08-04T22:46:16.050Z,7.43
2017-08-04T22:48:43.554Z,6.87
2017-08-04T22:51:11.456Z,6.83
2017-08-04T22:53:38.982Z,7.40
2017-08-04T22:56:06.887Z,7.13
2017-08-04T22:58:34.387Z,6.93
2017-08-04T23:01:01.922Z,6.80
2017-08-04T23:03:29.423Z,7.40
2017-08-04T23:05:57.335Z,6.80
2017-08-04T23:08:24.875Z,6.60
2017-08-04T23:10:52.391Z,8.17
2017-08-04T23:13:19.903Z,7.03
2017-08-04T23:15:47.440Z,7.83
2017-08-04T23:18:15.350Z,7.43
2017-08-04T23:20:42.891Z,7.30
2017-08-04T23:23:10.423Z,7.53
2017-08-04T23:25:38.324Z,8.30
2017-08-04T23:28:05.855Z,8.17
2017-08-04T23:30:33.383Z,7.70
2017-08-04T23:33:00.883Z,7.90
2017-08-04T23:35:28.398Z,8.27
2017-08-04T23:37:55.930Z,8.90
2017-08-04T23:40:23.438Z,7.87
2017-08-04T23:42:50.947Z,9.00
2017-08-04T23:45:18.470Z,9.50
2017-08-04T23:47:46.380Z,9.50
2017-08-04T23:50:13.887Z,9.03
2017-08-04T23:52:41.422Z,9.53
2017-08-04T23:55:08.936Z,8.30
2017-08-04T23:57:36.838Z,8.60
